createdAt,value
2022-12-01T00:01:07.364Z,0.26
2022-12-01T00:03:34.786Z,0.22
2022-12-01T00:06:03.489Z,0.06
2022-12-01T00:08:30.702Z,0.12
2022-12-01T00:11:08.800Z,0.36
2022-12-01T00:13:36.546Z,0.20
2022-12-01T00:16:16.937Z,0.30
2022-12-01T00:18:44.296Z,0.11
2022-12-01T00:21:15.098Z,0.31
2022-12-01T00:23:50.566Z,0.35
2022-12-01T00:26:18.624Z,0.38
2022-12-01T00:28:50.274Z,0.39
2022-12-01T00:31:16.978Z,0.25
2022-12-01T00:33:43.603Z,0.28
2022-12-01T00:36:10.216Z,0.27
2022-12-01T00:38:37.461Z,0.26
2022-12-01T00:41:04.414Z,0.16
2022-12-01T00:43:31.245Z,0.21
2022-12-01T00:45:57.958Z,0.02
2022-12-01T00:48:24.993Z,0.16
2022-12-01T00:50:53.014Z,0.20
2022-12-01T00:53:19.777Z,-0.22
2022-12-01T00:55:46.711Z,-0.28
2022-12-01T00:58:13.327Z,-0.38
2022-12-01T01:00:39.932Z,-0.27
2022-12-01T01:03:07.114Z,-0.39
2022-12-01T01:05:37.951Z,-0.20
2022-12-01T01:08:13.071Z,-0.35
2022-12-01T01:10:41.465Z,-0.15
2022-12-01T01:13:08.354Z,-0.09
2022-12-01T01:15:35.351Z,-0.13
2022-12-01T01:18:02.127Z,-0.16
2022-12-01T01:20:29.008Z,-0.14
2022-12-01T01:22:55.649Z,-0.34
2022-12-01T01:25:22.813Z,-0.17
2022-12-01T01:27:49.756Z,-0.33
2022-12-01T01:30:17.142Z,-0.40
2022-12-01T01:32:43.746Z,-0.44
2022-12-01T01:35:10.439Z,-0.38
2022-12-01T01:37:36.995Z,-0.23
2022-12-01T01:40:04.630Z,-0.25
2022-12-01T01:42:31.241Z,-0.28
2022-12-01T01:44:58.863Z,-0.31
2022-12-01T01:47:30.624Z,-0.39
2022-12-01T01:50:05.217Z,-0.40
2022-12-01T01:52:34.444Z,-0.42
2022-12-01T01:55:01.085Z,-0.83
2022-12-01T01:57:31.657Z,-0.88
2022-12-01T02:00:04.376Z,-0.84
2022-12-01T02:02:44.755Z,-0.93
2022-12-01T02:05:24.736Z,-0.87
2022-12-01T02:07:53.568Z,-0.89
2022-12-01T02:10:23.987Z,-0.97
2022-12-01T02:13:15.921Z,-0.96
2022-12-01T02:15:47.856Z,-1.46
2022-12-01T02:18:35.069Z,-1.05
2022-12-01T02:21:07.836Z,-0.94
2022-12-01T02:23:58.885Z,-1.14
2022-12-01T02:26:43.878Z,-1.22
2022-12-01T02:29:13.472Z,-1.14
2022-12-01T02:31:47.487Z,-1.07
2022-12-01T02:34:30.054Z,-1.02
2022-12-01T02:37:05.499Z,-1.19
2022-12-01T02:39:38.187Z,-1.36
2022-12-01T02:42:34.572Z,-1.49
2022-12-01T02:45:05.967Z,-1.33
2022-12-01T02:47:33.947Z,-1.46
2022-12-01T02:50:03.027Z,-1.40
2022-12-01T02:52:30.461Z,-1.62
2022-12-01T02:54:57.232Z,-1.46
2022-12-01T02:57:24.273Z,-1.40
2022-12-01T02:59:54.826Z,-1.31
2022-12-01T03:02:43.531Z,-1.59
2022-12-01T03:05:14.307Z,-1.39
2022-12-01T03:08:19.973Z,-1.34
2022-12-01T03:10:53.683Z,-1.39
2022-12-01T03:14:10.055Z,-1.60
2022-12-01T03:16:53.362Z,-1.45
2022-12-01T03:19:37.272Z,-1.45
2022-12-01T03:22:24.752Z,-1.42
2022-12-01T03:24:55.791Z,-1.47
2022-12-01T03:27:29.579Z,-1.42
2022-12-01T03:29:59.771Z,-1.64
2022-12-01T03:32:43.613Z,-1.86
2022-12-01T03:35:17.445Z,-1.96
2022-12-01T03:38:08.174Z,-1.70
2022-12-01T03:40:37.400Z,-1.86
2022-12-01T03:43:09.616Z,-1.90
2022-12-01T03:46:04.016Z,-1.45
2022-12-01T03:48:31.364Z,-1.59
2022-12-01T03:51:22.084Z,-1.53
2022-12-01T03:54:19.342Z,-1.61
2022-12-01T03:56:55.355Z,-1.70
2022-12-01T03:59:24.991Z,-1.72
2022-12-01T04:01:51.847Z,-1.74
2022-12-01T04:04:18.898Z,-1.64
2022-12-01T04:06:48.818Z,-1.74
2022-12-01T04:09:15.492Z,-1.57
2022-12-01T04:12:00.759Z,-1.68
2022-12-01T04:14:27.432Z,-1.62
2022-12-01T04:16:53.982Z,-1.61
2022-12-01T04:19:20.616Z,-1.35
2022-12-01T04:21:47.246Z,-1.32
2022-12-01T04:24:13.939Z,-1.38
2022-12-01T04:26:40.588Z,-1.33
2022-12-01T04:29:09.667Z,-1.47
2022-12-01T04:31:36.480Z,-1.41
2022-12-01T04:34:03.803Z,-1.10
2022-12-01T04:36:32.472Z,-0.99
2022-12-01T04:38:59.497Z,-0.87
2022-12-01T04:41:26.525Z,-0.99
2022-12-01T04:43:54.596Z,-1.09
2022-12-01T04:46:22.130Z,-0.86
2022-12-01T04:48:48.929Z,-0.95
2022-12-01T04:51:15.595Z,-1.23
2022-12-01T04:53:42.226Z,-1.18
2022-12-01T04:56:08.929Z,-1.25
2022-12-01T04:58:37.784Z,-1.15
2022-12-01T05:01:06.603Z,-1.13
2022-12-01T05:03:40.088Z,-1.11
2022-12-01T05:06:12.625Z,-1.20
2022-12-01T05:08:39.786Z,-1.28
2022-12-01T05:11:08.086Z,-1.41
2022-12-01T05:13:37.346Z,-1.29
2022-12-01T05:16:09.349Z,-1.25
2022-12-01T05:18:36.167Z,-1.34
2022-12-01T05:21:04.899Z,-1.27
2022-12-01T05:23:33.597Z,-1.25
2022-12-01T05:26:01.458Z,-1.23
2022-12-01T05:28:28.219Z,-1.37
2022-12-01T05:30:55.191Z,-1.28
2022-12-01T05:33:28.224Z,-1.19
2022-12-01T05:35:55.464Z,-1.27
2022-12-01T05:38:22.049Z,-1.17
2022-12-01T05:40:53.580Z,-1.06
2022-12-01T05:43:27.152Z,-1.06
2022-12-01T05:45:55.613Z,-1.01
2022-12-01T05:48:22.376Z,-1.34
2022-12-01T05:50:48.968Z,-1.23
2022-12-01T05:53:15.978Z,-1.18
2022-12-01T05:55:42.823Z,-1.27
2022-12-01T05:58:10.479Z,-1.40
2022-12-01T06:00:43.869Z,-1.54
2022-12-01T06:03:12.766Z,-1.45
2022-12-01T06:05:39.985Z,-1.28
2022-12-01T06:08:06.677Z,-1.37
2022-12-01T06:10:33.369Z,-1.45
2022-12-01T06:13:00.205Z,-1.17
2022-12-01T06:15:27.566Z,-1.05
2022-12-01T06:17:54.367Z,-1.18
2022-12-01T06:20:20.969Z,-1.12
2022-12-01T06:22:47.549Z,-1.10
2022-12-01T06:25:14.106Z,-1.15
2022-12-01T06:27:40.713Z,-1.31
2022-12-01T06:30:07.990Z,-1.28
2022-12-01T06:32:34.674Z,-1.21
2022-12-01T06:35:01.269Z,-0.91
2022-12-01T06:37:28.438Z,-0.98
2022-12-01T06:39:55.138Z,-0.96
2022-12-01T06:42:21.994Z,-0.94
2022-12-01T06:44:48.703Z,-1.06
2022-12-01T06:47:15.947Z,-1.00
2022-12-01T06:49:42.816Z,-1.34
2022-12-01T06:52:09.992Z,-1.21
2022-12-01T06:54:37.567Z,-1.23
2022-12-01T06:57:04.538Z,-1.06
2022-12-01T06:59:31.362Z,-1.16
2022-12-01T07:01:58.396Z,-1.36
2022-12-01T07:04:25.063Z,-1.12
2022-12-01T07:06:51.647Z,-1.16
2022-12-01T07:09:18.257Z,-1.08
2022-12-01T07:11:44.832Z,-1.59
2022-12-01T07:14:20.257Z,-1.20
2022-12-01T07:16:46.915Z,-1.40
2022-12-01T07:19:13.600Z,-1.32
2022-12-01T07:21:40.207Z,-1.46
2022-12-01T07:24:07.178Z,-1.43
2022-12-01T07:26:34.077Z,-1.14
2022-12-01T07:29:00.800Z,-1.29
2022-12-01T07:31:27.484Z,-1.11
2022-12-01T07:33:54.103Z,-0.99
2022-12-01T07:36:21.084Z,-0.96
2022-12-01T07:38:48.032Z,-0.80
2022-12-01T07:41:18.977Z,-0.82
2022-12-01T07:43:46.210Z,-0.68
2022-12-01T07:46:21.795Z,-0.66
2022-12-01T07:48:49.241Z,-0.72
2022-12-01T07:51:17.167Z,-0.60
2022-12-01T07:53:45.345Z,-0.60
2022-12-01T07:56:12.468Z,-0.61
2022-12-01T07:58:39.293Z,-0.70
2022-12-01T08:01:12.430Z,-0.52
2022-12-01T08:03:39.610Z,-0.50
2022-12-01T08:06:07.604Z,-0.62
2022-12-01T08:08:36.010Z,-0.31
2022-12-01T08:11:05.332Z,-0.25
2022-12-01T08:13:31.930Z,-0.97
2022-12-01T08:15:58.530Z,-0.29
2022-12-01T08:18:25.208Z,-0.35
2022-12-01T08:20:51.888Z,-0.41
2022-12-01T08:23:18.518Z,-0.24
2022-12-01T08:25:45.141Z,-0.45
2022-12-01T08:28:11.765Z,-0.25
2022-12-01T08:30:38.539Z,-0.13
2022-12-01T08:33:05.095Z,-0.20
2022-12-01T08:35:33.852Z,-0.26
2022-12-01T08:38:00.422Z,-0.13
2022-12-01T08:40:27.028Z,0.26
2022-12-01T08:42:53.645Z,0.28
2022-12-01T08:45:20.552Z,0.23
2022-12-01T08:47:47.532Z,0.22
2022-12-01T08:50:14.309Z,0.43
2022-12-01T08:52:40.977Z,0.57
2022-12-01T08:55:08.307Z,0.27
2022-12-01T08:57:35.000Z,0.65
2022-12-01T09:00:01.818Z,0.70
2022-12-01T09:02:28.578Z,0.73
2022-12-01T09:04:55.668Z,0.71
2022-12-01T09:07:26.305Z,0.75
2022-12-01T09:09:53.521Z,0.91
2022-12-01T09:12:20.221Z,0.89
2022-12-01T09:14:49.849Z,1.08
2022-12-01T09:17:17.586Z,1.17
2022-12-01T09:19:44.466Z,1.05
2022-12-01T09:22:12.103Z,1.34
2022-12-01T09:24:39.143Z,1.51
2022-12-01T09:27:06.477Z,1.43
2022-12-01T09:29:33.278Z,1.13
2022-12-01T09:32:00.432Z,1.55
2022-12-01T09:34:28.984Z,1.59
2022-12-01T09:36:58.249Z,1.82
2022-12-01T09:39:25.725Z,1.71
2022-12-01T09:42:12.880Z,2.08
2022-12-01T09:44:45.083Z,2.25
2022-12-01T09:47:15.015Z,2.17
2022-12-01T09:49:51.779Z,2.38
2022-12-01T09:52:19.838Z,2.56
2022-12-01T09:54:49.620Z,2.31
2022-12-01T09:57:28.647Z,2.53
2022-12-01T09:59:57.101Z,2.35
2022-12-01T10:02:29.319Z,2.75
2022-12-01T10:04:58.592Z,2.80
2022-12-01T10:07:32.892Z,2.70
2022-12-01T10:10:02.978Z,2.77
2022-12-01T10:12:33.301Z,2.62
2022-12-01T10:15:15.296Z,2.79
2022-12-01T10:18:02.725Z,2.57
2022-12-01T10:20:44.684Z,2.75
2022-12-01T10:23:29.411Z,2.81
2022-12-01T10:25:59.522Z,2.98
2022-12-01T10:28:32.279Z,2.83
2022-12-01T10:31:20.152Z,2.71
2022-12-01T10:33:58.753Z,2.90
2022-12-01T10:36:26.934Z,2.88
2022-12-01T10:38:54.076Z,2.74
2022-12-01T10:41:23.789Z,2.97
2022-12-01T10:43:53.986Z,2.87
2022-12-01T10:46:28.866Z,3.17
2022-12-01T10:49:07.348Z,3.14
2022-12-01T10:51:46.976Z,3.12
2022-12-01T10:54:13.807Z,3.12
2022-12-01T10:56:42.946Z,3.20
2022-12-01T10:59:24.545Z,3.09
2022-12-01T11:01:51.366Z,2.80
2022-12-01T11:04:35.460Z,3.20
2022-12-01T11:07:03.301Z,2.97
2022-12-01T11:09:31.344Z,3.10
2022-12-01T11:12:00.492Z,3.07
2022-12-01T11:14:49.531Z,3.23
2022-12-01T11:17:34.854Z,3.20
2022-12-01T11:20:28.170Z,3.22
2022-12-01T11:23:10.117Z,3.27
2022-12-01T11:25:36.978Z,3.22
2022-12-01T11:28:04.592Z,3.18
2022-12-01T11:30:32.838Z,2.88
2022-12-01T11:33:02.373Z,2.73
2022-12-01T11:35:35.151Z,3.04
2022-12-01T11:40:57.413Z,3.17
2022-12-01T11:43:23.980Z,3.17
2022-12-01T11:45:51.419Z,3.07
2022-12-01T11:48:25.873Z,3.21
2022-12-01T11:51:15.347Z,3.15
2022-12-01T11:53:43.501Z,3.18
2022-12-01T11:56:13.063Z,3.35
2022-12-01T11:58:40.164Z,3.27
2022-12-01T12:01:44.114Z,3.42
2022-12-01T12:04:51.724Z,3.47
2022-12-01T12:07:33.452Z,3.45
2022-12-01T12:10:12.956Z,3.46
2022-12-01T12:12:48.634Z,3.53
2022-12-01T12:15:37.416Z,3.62
2022-12-01T12:18:16.132Z,3.59
2022-12-01T12:21:08.645Z,3.48
2022-12-01T12:24:05.968Z,3.33
2022-12-01T12:26:52.148Z,3.42
2022-12-01T12:29:46.602Z,3.52
2022-12-01T12:32:36.139Z,3.25
2022-12-01T12:35:21.670Z,3.51
2022-12-01T12:37:54.682Z,3.51
2022-12-01T12:40:40.098Z,3.50
2022-12-01T12:43:22.622Z,3.54
2022-12-01T12:46:04.517Z,3.65
2022-12-01T12:49:03.597Z,3.64
2022-12-01T12:51:43.106Z,3.55
2022-12-01T12:54:13.991Z,3.71
2022-12-01T12:56:49.352Z,3.62
2022-12-01T12:59:26.870Z,3.60
2022-12-01T13:02:18.769Z,3.72
2022-12-01T13:05:00.226Z,3.39
2022-12-01T13:07:37.544Z,3.54
2022-12-01T13:10:16.463Z,3.22
2022-12-01T13:12:51.381Z,3.28
2022-12-01T13:15:20.626Z,3.36
2022-12-01T13:17:55.049Z,3.39
2022-12-01T13:20:27.665Z,3.43
2022-12-01T13:22:57.923Z,3.51
2022-12-01T13:25:32.744Z,3.42
2022-12-01T13:28:02.151Z,3.33
2022-12-01T13:30:29.119Z,3.43
2022-12-01T13:33:04.881Z,3.55
2022-12-01T13:35:35.300Z,3.53
2022-12-01T13:38:27.018Z,3.58
2022-12-01T13:41:25.857Z,3.59
2022-12-01T13:44:07.569Z,3.48
2022-12-01T13:46:36.941Z,3.42
2022-12-01T13:49:04.199Z,3.29
2022-12-01T13:52:08.996Z,3.54
2022-12-01T13:54:37.629Z,3.31
2022-12-01T13:57:10.928Z,3.41
2022-12-01T14:00:01.691Z,3.31
2022-12-01T14:02:39.006Z,3.03
2022-12-01T14:05:24.456Z,3.32
2022-12-01T14:07:53.187Z,3.03
2022-12-01T14:10:27.419Z,3.28
2022-12-01T14:12:57.822Z,3.17
2022-12-01T14:15:31.126Z,3.16
2022-12-01T14:18:04.836Z,3.13
2022-12-01T14:20:37.819Z,3.02
2022-12-01T14:23:14.038Z,3.09
2022-12-01T14:25:42.538Z,3.11
2022-12-01T14:28:47.428Z,3.20
2022-12-01T14:31:14.717Z,3.07
2022-12-01T14:33:51.213Z,3.21
2022-12-01T14:36:23.928Z,3.15
2022-12-01T14:38:59.661Z,3.15
2022-12-01T14:41:30.915Z,3.12
2022-12-01T14:44:10.698Z,2.71
2022-12-01T14:46:48.914Z,2.88
2022-12-01T14:49:29.362Z,2.79
2022-12-01T14:52:06.961Z,2.96
2022-12-01T14:54:44.673Z,2.81
2022-12-01T14:57:17.248Z,2.91
2022-12-01T14:59:44.705Z,2.91
2022-12-01T15:02:12.208Z,2.72
2022-12-01T15:05:08.613Z,2.96
2022-12-01T15:07:44.456Z,2.94
2022-12-01T15:10:48.849Z,2.94
2022-12-01T15:13:21.548Z,2.93
2022-12-01T15:15:53.838Z,2.74
2022-12-01T15:18:26.805Z,2.74
2022-12-01T15:21:03.471Z,2.94
2022-12-01T15:23:30.102Z,2.81
2022-12-01T15:25:57.388Z,2.98
2022-12-01T15:28:33.433Z,2.95
2022-12-01T15:31:01.797Z,3.00
2022-12-01T15:33:37.180Z,2.92
2022-12-01T15:36:04.761Z,2.94
2022-12-01T15:38:36.445Z,2.95
2022-12-01T15:43:57.427Z,2.57
2022-12-01T15:46:32.539Z,2.80
2022-12-01T15:49:19.389Z,2.81
2022-12-01T15:51:48.918Z,2.86
2022-12-01T15:54:24.565Z,2.73
2022-12-01T15:56:54.841Z,2.74
2022-12-01T15:59:36.601Z,2.71
2022-12-01T16:02:20.855Z,2.76
2022-12-01T16:04:49.321Z,2.73
2022-12-01T16:07:16.376Z,2.46
2022-12-01T16:10:03.577Z,2.64
2022-12-01T16:12:36.696Z,2.56
2022-12-01T16:15:15.526Z,2.75
2022-12-01T16:17:46.663Z,2.58
2022-12-01T16:20:32.731Z,2.70
2022-12-01T16:23:09.461Z,2.69
2022-12-01T16:25:43.541Z,2.79
2022-12-01T16:28:47.014Z,2.84
2022-12-01T16:31:23.071Z,2.56
2022-12-01T16:34:06.537Z,2.75
2022-12-01T16:36:40.679Z,2.78
2022-12-01T16:39:10.375Z,2.71
2022-12-01T16:41:41.095Z,2.52
2022-12-01T16:46:56.520Z,2.71
2022-12-01T16:49:23.136Z,2.54
2022-12-01T16:51:55.780Z,2.66
2022-12-01T16:54:22.966Z,2.85
2022-12-01T16:56:49.618Z,2.52
2022-12-01T16:59:16.246Z,2.38
2022-12-01T17:01:42.938Z,2.44
2022-12-01T17:04:09.614Z,2.55
2022-12-01T17:06:38.347Z,2.52
2022-12-01T17:09:05.964Z,2.49
2022-12-01T17:11:33.203Z,2.55
2022-12-01T17:14:00.037Z,2.40
2022-12-01T17:16:26.918Z,2.49
2022-12-01T17:18:53.747Z,2.27
2022-12-01T17:21:20.435Z,2.16
2022-12-01T17:23:47.034Z,2.07
2022-12-01T17:26:16.378Z,2.50
2022-12-01T17:28:43.048Z,2.40
2022-12-01T17:31:10.469Z,2.46
2022-12-01T17:33:37.855Z,2.43
2022-12-01T17:36:15.059Z,2.47
2022-12-01T17:38:45.326Z,2.54
2022-12-01T17:41:15.329Z,2.58
2022-12-01T17:43:42.514Z,2.52
2022-12-01T17:46:11.638Z,2.43
2022-12-01T17:48:40.510Z,2.25
2022-12-01T17:51:08.922Z,2.36
2022-12-01T17:53:36.983Z,2.38
2022-12-01T17:56:12.195Z,1.89
2022-12-01T17:58:39.453Z,2.41
2022-12-01T18:01:12.476Z,2.33
2022-12-01T18:03:40.484Z,2.18
2022-12-01T18:06:07.553Z,2.14
2022-12-01T18:08:36.087Z,2.30
2022-12-01T18:11:07.811Z,2.19
2022-12-01T18:13:44.941Z,2.00
2022-12-01T18:16:17.784Z,2.19
2022-12-01T18:18:44.479Z,2.29
2022-12-01T18:21:14.200Z,2.28
2022-12-01T18:23:41.351Z,2.35
2022-12-01T18:26:15.705Z,2.29
2022-12-01T18:28:43.489Z,1.99
2022-12-01T18:31:15.496Z,2.21
2022-12-01T18:33:44.232Z,2.31
2022-12-01T18:36:18.525Z,2.31
2022-12-01T18:38:47.276Z,2.18
2022-12-01T18:41:14.696Z,2.02
2022-12-01T18:43:41.643Z,2.23
2022-12-01T18:46:08.477Z,2.20
2022-12-01T18:48:35.626Z,2.16
2022-12-01T18:51:03.874Z,2.06
2022-12-01T18:53:30.715Z,1.97
2022-12-01T18:55:57.443Z,1.74
2022-12-01T18:58:24.083Z,1.94
2022-12-01T19:00:50.772Z,1.80
2022-12-01T19:03:17.430Z,1.87
2022-12-01T19:05:44.104Z,1.81
2022-12-01T19:08:10.840Z,1.68
2022-12-01T19:10:40.216Z,1.77
2022-12-01T19:13:07.693Z,1.68
2022-12-01T19:15:38.610Z,1.87
2022-12-01T19:18:05.491Z,1.76
2022-12-01T19:20:32.252Z,1.73
2022-12-01T19:22:59.206Z,1.63
2022-12-01T19:25:25.923Z,1.75
2022-12-01T19:27:53.208Z,1.56
2022-12-01T19:30:20.154Z,1.43
2022-12-01T19:32:46.779Z,1.52
2022-12-01T19:35:13.549Z,1.37
2022-12-01T19:37:40.278Z,1.37
2022-12-01T19:40:07.807Z,1.57
2022-12-01T19:42:34.559Z,1.34
2022-12-01T19:45:01.558Z,1.56
2022-12-01T19:47:34.208Z,1.45
2022-12-01T19:50:01.715Z,1.54
2022-12-01T19:52:31.164Z,1.27
2022-12-01T19:54:57.925Z,1.23
2022-12-01T19:57:24.752Z,1.26
2022-12-01T19:59:53.183Z,1.19
2022-12-01T20:02:22.957Z,1.39
2022-12-01T20:04:52.984Z,1.20
2022-12-01T20:07:19.914Z,1.10
2022-12-01T20:09:49.882Z,1.33
2022-12-01T20:12:17.044Z,1.35
2022-12-01T20:14:43.863Z,1.12
2022-12-01T20:17:15.589Z,1.21
2022-12-01T20:19:42.619Z,1.15
2022-12-01T20:22:09.367Z,1.13
2022-12-01T20:24:39.720Z,1.22
2022-12-01T20:27:06.614Z,0.97
2022-12-01T20:29:33.799Z,1.14
2022-12-01T20:32:02.995Z,1.28
2022-12-01T20:34:35.561Z,1.15
2022-12-01T20:37:03.055Z,1.16
2022-12-01T20:39:38.284Z,1.25
2022-12-01T20:42:15.571Z,1.14
2022-12-01T20:44:42.439Z,1.30
2022-12-01T20:47:12.004Z,1.22
2022-12-01T20:49:44.092Z,1.01
2022-12-01T20:52:11.006Z,1.29
2022-12-01T20:54:42.524Z,1.25
2022-12-01T20:57:09.726Z,1.09
2022-12-01T20:59:36.467Z,0.92
2022-12-01T21:02:03.370Z,1.12
2022-12-01T21:04:30.115Z,0.96
2022-12-01T21:06:57.922Z,1.06
2022-12-01T21:09:25.448Z,1.03
2022-12-01T21:12:10.641Z,0.97
2022-12-01T21:15:10.798Z,1.02
2022-12-01T21:17:44.424Z,1.02
2022-12-01T21:20:27.160Z,1.06
2022-12-01T21:22:56.832Z,1.00
2022-12-01T21:25:24.468Z,0.99
2022-12-01T21:27:51.899Z,1.03
2022-12-01T21:30:25.843Z,1.03
2022-12-01T21:32:53.994Z,1.01
2022-12-01T21:35:25.276Z,1.05
2022-12-01T21:38:00.515Z,0.93
2022-12-01T21:40:28.444Z,1.05
2022-12-01T21:43:01.328Z,0.94
2022-12-01T21:45:31.147Z,1.18
2022-12-01T21:48:12.331Z,1.08
2022-12-01T21:50:38.910Z,1.26
2022-12-01T21:53:18.194Z,1.21
2022-12-01T21:55:47.672Z,1.22
2022-12-01T21:58:23.928Z,1.02
2022-12-01T22:00:52.601Z,1.08
2022-12-01T22:03:39.601Z,1.10
2022-12-01T22:06:28.715Z,1.17
2022-12-01T22:09:00.878Z,1.25
2022-12-01T22:11:29.996Z,1.12
2022-12-01T22:14:09.055Z,1.18
2022-12-01T22:16:48.764Z,1.19
2022-12-01T22:19:15.391Z,1.18
2022-12-01T22:21:50.052Z,1.10
2022-12-01T22:24:24.422Z,1.08
2022-12-01T22:26:59.849Z,1.04
2022-12-01T22:29:32.050Z,0.99
2022-12-01T22:32:10.936Z,1.03
2022-12-01T22:34:38.885Z,1.00
2022-12-01T22:37:19.563Z,0.96
2022-12-01T22:39:49.742Z,0.84
2022-12-01T22:42:34.673Z,1.06
2022-12-01T22:45:19.612Z,1.04
2022-12-01T22:47:46.283Z,0.90
2022-12-01T22:50:26.702Z,0.68
2022-12-01T22:52:59.174Z,1.11
2022-12-01T22:55:25.817Z,1.04
2022-12-01T22:57:52.501Z,1.02
2022-12-01T23:00:25.730Z,0.98
2022-12-01T23:02:55.989Z,0.77
2022-12-01T23:05:28.414Z,1.02
2022-12-01T23:07:56.617Z,1.06
2022-12-01T23:10:34.650Z,1.07
2022-12-01T23:13:13.498Z,1.02
2022-12-01T23:15:44.295Z,1.09
2022-12-01T23:18:26.885Z,1.02
2022-12-01T23:20:56.024Z,1.09
2022-12-01T23:23:34.538Z,1.04
2022-12-01T23:26:07.064Z,1.07
2022-12-01T23:28:36.922Z,1.14
2022-12-01T23:31:03.728Z,0.90
2022-12-01T23:33:32.534Z,0.88
2022-12-01T23:36:15.593Z,0.86
2022-12-01T23:38:45.244Z,0.91
2022-12-01T23:41:27.076Z,0.94
2022-12-01T23:43:55.731Z,0.85
2022-12-01T23:46:28.370Z,1.02
2022-12-01T23:49:07.208Z,1.00
2022-12-01T23:51:40.002Z,0.94
2022-12-01T23:54:27.116Z,0.95
2022-12-01T23:57:00.663Z,0.76
2022-12-01T23:59:28.275Z,0.90
